x

Capers Nearshore (cap 2) (41029) Weather Station

5:08pm - Sun 19th Feb 2017 All times are EST. -5 hours from GMT.

  • Wind
    11mph, 16mph gusts
  • Sea Temp 61°f
  • Air Temp 67°f
  • Sea Pressure 1015.3mb
  • Capers Nearshore (cap 2)
  • Capers Nearshore (cap 2)

More Historic Weather Station data

Upgrade to MSW Pro to gain access to the past 30 days of data for over 8000 Wavebouys and Weather Stations around the globe.

Join Pro

Comparision Forecast

View Surf forecast
   
Sun 02/19 5:08pm 11 16 mph 1015.3mb 61f 67f
4:08pm 9 13 mph 1015.2mb 61f 67f
3:08pm 4 9 mph 1015.2mb 60f 64f
2:08pm 9 11 mph 1015mb 60f 61f
1:08pm 7 11 mph 1015.5mb 59f 63f
12:08pm 7 9 mph 1016.1mb 59f 61f
11:08am 9 11 mph 1016.5mb 58f 60f
10:08am 9 11 mph 1016.7mb 58f 58f
9:08am 9 13 mph 1016.6mb 58f 56f
8:08am 9 11 mph 1016.2mb 58f 55f
7:08am 9 11 mph 1015.5mb 58f 56f
6:08am 9 11 mph 1014.8mb 58f 56f
5:08am 7 9 mph 1014.6mb 58f 56f
4:08am 7 9 mph 1014mb 59f 56f
3:08am 11 16 mph 1013.1mb 59f 56f
2:08am 11 16 mph 1013.5mb 59f 57f
1:08am 9 13 mph 1014.1mb 59f 58f
12:08am 7
mph
1014.5mb 59f 59f
Sat 02/18 11:08pm 7 9 mph 1014.9mb 59f 59f
10:08pm 7 9 mph 1014.9mb 59f 59f
9:08pm 4 7 mph 1014.9mb 59f 59f
8:08pm 7
mph
1014.2mb 59f 60f
7:08pm 4 7 mph 1013.7mb 59f 60f
6:08pm 7 9 mph 1013.9mb 59f 60f
5:08pm 7 11 mph 1014.5mb 59f 60f
4:08pm 9 11 mph 1015mb 59f 60f
2:08pm 11 13 mph 1015.6mb 59f 60f
1:08pm 9 11 mph 1016.2mb 59f 60f
12:08pm 7 9 mph 1016.3mb 59f 60f
11:08am 4 7 mph 1016.9mb 58f 60f
10:08am 4 7 mph 1017.1mb 58f 59f
9:08am 4 7 mph 1017.3mb 58f 59f
8:08am 4 7 mph 1017.1mb 58f 59f
6:08am 9 11 mph 1016mb 58f 59f
5:08am 9 13 mph 1016.2mb 58f 58f
4:08am 9 13 mph 1015.5mb 58f 58f
3:08am 9 11 mph 1015.3mb 58f 58f
2:08am 9 13 mph 1015.8mb 58f 58f
1:08am 13 18 mph 1015.9mb 58f 59f
12:08am 16 20 mph 1016.4mb 58f 59f
Fri 02/17 11:08pm 11 16 mph 1015.5mb 58f 59f
10:08pm 13 18 mph 1016mb 58f 59f
9:08pm 13 20 mph 1015.7mb 58f 59f
8:08pm 16 20 mph 1015.7mb 58f 59f
7:08pm 18 22 mph 1015.6mb 58f 59f
6:08pm 16 20 mph 1015.4mb 58f 59f
5:08pm 18 22 mph 1015.2mb 58f 60f
4:08pm 18 22 mph 1015.3mb 58f 59f
3:08pm 20 25 mph 1015.3mb 58f 58f
2:08pm 16 20 mph 1015.5mb 58f 58f
1:08pm 13 18 mph 1016.8mb 58f 58f
12:08pm 11 16 mph 1017.8mb 58f 57f
11:08am 7 11 mph 1018.1mb 58f 56f
10:08am 4 9 mph 1018.2mb 58f 55f
9:08am 7 9 mph 1018.3mb 58f 53f
8:08am 9 13 mph 1018.3mb 58f 52f
7:08am 13 16 mph 1017.4mb 58f 52f
6:08am 11 18 mph 1016.9mb 58f 53f
5:08am 13 18 mph 1016.1mb 58f 53f
4:08am 13 16 mph 1016mb 58f 55f
3:08am 13 18 mph 1015.7mb 58f 56f
2:08am 13 16 mph 1015.9mb 58f 56f
1:08am 13 18 mph 1015.8mb 58f 56f
12:08am 11 16 mph 1015.2mb 58f 57f
Thu 02/16 11:08pm 9 13 mph 1015.2mb 58f 58f
10:08pm 9 11 mph 1015.4mb 58f 58f
9:08pm 11 16 mph 1015.1mb 58f 58f
8:08pm 11 13 mph 1014.7mb 58f 58f
7:08pm 16 20 mph 1014mb 58f 58f
6:08pm 18 27 mph 1013.3mb 58f 58f
5:08pm 13 18 mph 1012.2mb 58f 62f
4:08pm 18 25 mph 1011.4mb 58f 58f
3:08pm 18 22 mph 1012mb 58f 56f
2:08pm 16 20 mph 1012mb 58f 55f
1:08pm 11 13 mph 1012.8mb 58f 56f
12:08pm 9 13 mph 1013.6mb 58f 54f
11:08am 11 16 mph 1014mb 58f 52f
10:08am 11 16 mph 1014.1mb 58f 50f
9:08am 16 18 mph 1013.8mb 58f 48f
8:08am 13 18 mph 1013.2mb 58f 48f
7:08am 13 16 mph 1012.4mb 58f 48f
6:08am 11 13 mph 1011.8mb 58f 49f
5:08am 13 16 mph 1011.5mb 58f 50f
4:08am 13 16 mph 1010.7mb 58f 51f
3:08am 13 18 mph 1010.3mb 58f 51f
2:08am 13 18 mph 1009.9mb 58f 52f
1:08am 13 20 mph 1009.2mb 58f 53f
12:08am 13 18 mph 1008.1mb 58f 54f